Time;durP1;ratioP1;P1;durP2;ratioP2;P2;SDS_P1;SDS_P2;PMS_P1;PMS_P2;Temp;Humidity;BMP_temperature;BMP_pressure;BME280_temperature;BME280_humidity;BME280_pressure;Samples;Min_cycle;Max_cycle;Signal;HPM_P1;HPM_P2
2023/06/30 05:01:14;;;;;;;;;4.00;4.00;;;;;19.73;61.65;-10993.97;5925851;22;46100;-91
2023/06/30 05:03:42;;;;;;;;;3.67;2.67;;;;;20.37;62.33;-11338.59;5002476;28;45577;-92
2023/06/30 05:06:07;;;;;;;;;2.33;2.33;;;;;20.75;62.07;-11680.31;4939382;22;45420;-91
2023/06/30 05:08:33;;;;;;;;;18.00;18.00;;;;;20.77;61.99;-12017.56;4909628;28;45564;-91
2023/06/30 05:10:58;;;;;;;;;4.00;3.00;;;;;20.45;61.65;-12013.28;4933116;28;45534;-91
2023/06/30 05:13:25;;;;;;;;;5.00;3.00;;;;;20.57;62.01;-12014.88;4929649;28;47365;-91
2023/06/30 05:15:51;;;;;;;;;3.00;3.00;;;;;20.79;61.85;-12354.81;4900993;28;45388;-91
2023/06/30 05:18:16;;;;;;;;;4.00;3.00;;;;;20.50;61.97;-12013.84;4926428;28;45501;-90
2023/06/30 05:20:41;;;;;;;;;3.67;3.33;;;;;20.61;61.66;-12352.25;4908017;28;45376;-91
2023/06/30 05:23:07;;;;;;;;;2.67;2.00;;;;;20.68;61.65;-12353.19;4916663;28;47413;-91
2023/06/30 05:25:32;;;;;;;;;3.00;3.00;;;;;20.69;61.48;-12016.50;4923699;28;45480;-91
2023/06/30 05:27:57;;;;;;;;;5.00;3.00;;;;;20.94;61.93;-12019.88;4928841;28;45631;-91
2023/06/30 05:30:23;;;;;;;;;6.33;5.00;;;;;20.60;61.08;-12015.25;4909263;28;45470;-91
2023/06/30 05:32:48;;;;;;;;;6.33;5.00;;;;;20.67;60.99;-11679.31;4936675;28;46578;-91
2023/06/30 05:35:13;;;;;;;;;2.00;2.00;;;;;21.04;61.53;-11684.25;4926013;28;45582;-90
2023/06/30 05:37:39;;;;;;;;;4.00;4.00;;;;;21.12;60.95;-11010.84;4939708;28;45793;-91
2023/06/30 05:40:05;;;;;;;;;5.00;4.33;;;;;21.13;60.33;-10673.66;4921918;28;45483;-89
2023/06/30 05:42:30;;;;;;;;;4.00;4.00;;;;;20.98;60.58;-11009.16;4930517;28;46713;-90
2023/06/30 05:44:55;;;;;;;;;4.00;4.00;;;;;21.25;60.54;-10675.06;4936314;28;45412;-89
2023/06/30 05:47:21;;;;;;;;;2.67;2.67;;;;;20.74;59.99;-10332.13;4909339;28;45727;-90
2023/06/30 05:49:46;;;;;;;;;3.00;3.00;;;;;20.65;59.78;-9994.03;4927741;28;45479;-90
2023/06/30 05:52:12;;;;;;;;;4.00;4.00;;;;;20.70;60.40;-9994.59;4913754;28;47070;-91
2023/06/30 05:54:37;;;;;;;;;4.00;4.00;;;;;21.16;59.65;-9999.38;4932287;28;45461;-89
2023/06/30 05:57:03;;;;;;;;;4.33;4.33;;;;;21.32;60.24;-10001.09;4931229;28;45458;-89
2023/06/30 05:59:30;;;;;;;;;3.00;3.00;;;;;21.39;59.38;-9664.31;4923922;28;45480;-89
2023/06/30 06:01:56;;;;;;;;;5.00;4.00;;;;;21.07;60.08;-9661.19;4942608;28;46560;-89
2023/06/30 06:04:21;;;;;;;;;4.00;3.00;;;;;21.24;59.36;-9662.84;4926748;28;45583;-89
2023/06/30 06:06:47;;;;;;;;;3.00;3.00;;;;;21.02;59.46;-9323.38;4932078;28;46148;-88
2023/06/30 06:09:12;;;;;;;;;3.00;3.00;;;;;21.38;59.48;-9326.72;4921671;28;46003;-91
2023/06/30 06:11:39;;;;;;;;;5.67;4.00;;;;;21.41;59.46;-9327.06;4919556;28;48051;-93
2023/06/30 06:14:04;;;;;;;;;4.00;3.00;;;;;21.62;59.12;-9666.63;4928939;28;45519;-93
2023/06/30 06:16:29;;;;;;;;;3.00;3.00;;;;;21.55;59.23;-8990.69;4918695;28;45555;-92
2023/06/30 06:18:55;;;;;;;;;4.00;4.00;;;;;21.28;59.14;-8988.34;4921491;28;45424;-92
2023/06/30 06:21:20;;;;;;;;;7.00;6.00;;;;;21.42;59.00;-8989.59;4917764;28;47068;-92
2023/06/30 06:23:45;;;;;;;;;5.33;3.67;;;;;21.35;58.89;-8651.38;4929643;28;45836;-92
2023/06/30 06:26:11;;;;;;;;;2.67;2.33;;;;;21.85;58.01;-8317.69;4920927;28;45452;-91
2023/06/30 06:28:36;;;;;;;;;4.00;4.00;;;;;21.90;58.22;-7980.19;4918313;28;45795;-90
2023/06/30 06:31:02;;;;;;;;;6.00;4.00;;;;;21.60;57.64;-7640.22;4921786;28;46335;-91
2023/06/30 06:33:27;;;;;;;;;4.33;4.33;;;;;21.98;57.44;-6966.72;4936197;28;45469;-90
2023/06/30 06:35:53;;;;;;;;;3.33;3.33;;;;;21.95;56.50;-6290.44;4927821;28;46634;-90
2023/06/30 06:38:19;;;;;;;;;5.67;5.67;;;;;22.11;56.82;-6629.34;4923425;28;46787;-90
2023/06/30 06:40:45;;;;;;;;;4.00;4.00;;;;;21.39;57.15;-6963.38;4920684;28;47268;-90
2023/06/30 06:43:10;;;;;;;;;7.00;6.67;;;;;22.18;57.30;-6629.69;4925086;28;45636;-90
2023/06/30 06:45:36;;;;;;;;;7.67;7.33;;;;;22.02;56.75;-5952.63;4929954;28;45687;-90
2023/06/30 06:48:21;;;;;;;;;71.75;56.75;;;;;22.30;55.97;-4938.69;4948119;28;46860;-90
2023/06/30 06:51:00;;;;;;;;;9.33;9.33;;;;;22.38;55.51;-4261.91;4924456;28;47624;-92
2023/06/30 06:53:28;;;;;;;;;9.00;7.67;;;;;22.21;54.85;-4261.69;4914857;28;45392;-92
2023/06/30 06:55:55;;;;;;;;;7.67;7.67;;;;;22.47;54.77;-3923.47;4920813;28;45643;-91
2023/06/30 06:58:21;;;;;;;;;7.67;7.00;;;;;22.52;55.43;-3923.50;4916151;28;46008;-92
2023/06/30 07:00:48;;;;;;;;;10.67;6.00;;;;;22.48;54.95;-3584.88;4918312;28;49108;-92
2023/06/30 07:03:15;;;;;;;;;6.67;6.67;;;;;22.43;54.96;-3923.44;4939356;28;45744;-92
2023/06/30 07:05:41;;;;;;;;;10.00;8.33;;;;;22.75;55.18;-3923.69;4918236;28;45386;-92
2023/06/30 07:08:07;;;;;;;;;6.00;5.33;;;;;22.82;53.52;-2568.44;4912828;28;45545;-90
2023/06/30 07:10:33;;;;;;;;;5.33;4.00;;;;;22.86;52.74;-1212.50;4923944;28;46213;-90
2023/06/30 07:12:59;;;;;;;;;7.00;6.67;;;;;22.91;53.08;-1551.34;4919119;28;45710;-93
2023/06/30 07:15:25;;;;;;;;;8.67;7.00;;;;;22.92;52.55;-534.06;4929625;28;47640;-93
2023/06/30 07:17:50;;;;;;;;;7.00;6.00;;;;;22.71;51.73;1160.38;4930335;28;45474;-93
2023/06/30 07:20:18;;;;;;;;;8.00;7.00;;;;;22.96;51.67;1501.50;4916950;28;48288;-93
2023/06/30 07:22:44;;;;;;;;;8.33;8.33;;;;;22.74;51.36;1839.06;4905663;28;45853;-88
2023/06/30 07:25:09;;;;;;;;;8.33;7.33;;;;;23.14;52.03;1502.91;4925831;28;45754;-87
2023/06/30 07:27:38;;;;;;;;;7.00;5.33;;;;;23.18;51.89;1503.25;4926859;28;45430;-87
2023/06/30 07:30:05;;;;;;;;;8.00;7.00;;;;;23.26;51.43;1503.88;4915242;28;45859;-88
2023/06/30 07:32:33;;;;;;;;;9.67;8.33;;;;;23.36;51.89;1504.66;4916268;28;45459;-87
2023/06/30 07:34:59;;;;;;;;;10.33;9.00;;;;;23.14;50.86;2860.91;4913865;28;45467;-87
2023/06/30 07:37:25;;;;;;;;;6.67;6.00;;;;;22.86;51.75;2179.38;4922748;28;45431;-87
2023/06/30 07:39:50;;;;;;;;;7.67;7.67;;;;;23.09;50.50;3199.88;4923671;28;47551;-88
2023/06/30 07:42:15;;;;;;;;;5.33;5.33;;;;;23.67;50.51;3545.88;4929721;28;45630;-87
2023/06/30 07:44:41;;;;;;;;;11.33;9.00;;;;;23.30;49.71;3881.50;4919119;28;45576;-88
2023/06/30 07:47:06;;;;;;;;;6.33;5.33;;;;;23.26;50.02;4560.41;4921962;28;45692;-88
2023/06/30 07:49:31;;;;;;;;;9.00;9.00;;;;;23.83;49.88;4567.69;4907782;28;48348;-88
2023/06/30 07:51:57;;;;;;;;;6.67;6.67;;;;;23.62;49.90;4225.09;4918388;28;45489;-87
2023/06/30 07:54:22;;;;;;;;;7.00;7.00;;;;;23.93;49.89;4909.06;4909458;28;45456;-87
2023/06/30 07:56:47;;;;;;;;;7.67;7.67;;;;;23.94;49.96;4569.06;4910707;28;45637;-87
2023/06/30 07:59:13;;;;;;;;;7.33;6.00;;;;;23.77;49.44;4567.00;4920107;28;46456;-87
2023/06/30 08:01:38;;;;;;;;;7.67;6.33;;;;;23.73;49.71;4906.50;4921599;28;45969;-87
2023/06/30 08:04:04;;;;;;;;;5.33;5.00;;;;;24.22;49.33;5593.69;4926812;28;45413;-87
2023/06/30 08:06:29;;;;;;;;;5.67;5.67;;;;;24.06;48.73;6612.22;4921679;28;45375;-88
2023/06/30 08:08:54;;;;;;;;;6.00;6.00;;;;;24.34;48.12;7297.91;4908692;28;47306;-88
2023/06/30 08:11:20;;;;;;;;;6.33;6.00;;;;;24.44;48.17;7980.97;4919495;28;45904;-88
2023/06/30 08:13:45;;;;;;;;;7.33;4.67;;;;;24.16;47.03;10019.56;4899889;28;45381;-87
2023/06/30 08:16:10;;;;;;;;;3.67;3.67;;;;;24.18;46.45;11383.16;4899952;28;45783;-88
2023/06/30 08:18:36;;;;;;;;;3.33;3.33;;;;;24.69;46.61;12418.75;4922706;28;46329;-87
2023/06/30 08:21:02;;;;;;;;;5.33;4.00;;;;;24.94;45.72;13107.84;4928492;28;45440;-87
2023/06/30 08:23:28;;;;;;;;;4.00;2.67;;;;;24.65;45.81;13100.19;4928965;28;45517;-87
2023/06/30 08:25:55;;;;;;;;;5.00;5.00;;;;;25.21;45.23;14481.34;4910558;28;45538;-88
2023/06/30 08:28:21;;;;;;;;;3.00;3.00;;;;;25.32;45.68;14484.41;4917835;28;45442;-90
2023/06/30 08:30:47;;;;;;;;;7.33;5.67;;;;;25.31;45.26;15167.63;4927340;28;45561;-89
2023/06/30 08:33:13;;;;;;;;;5.67;5.67;;;;;25.08;45.18;14819.31;4897921;28;45440;-88
2023/06/30 08:35:38;;;;;;;;;8.67;5.00;;;;;25.47;44.45;16882.44;4920560;28;45663;-88
2023/06/30 08:38:04;;;;;;;;;6.33;4.33;;;;;25.63;44.07;17571.69;4963718;28;48399;-88
2023/06/30 08:40:31;;;;;;;;;4.00;4.00;;;;;25.69;44.22;17915.97;4930767;28;45430;-88
2023/06/30 08:43:10;;;;;;;;;3.67;3.00;;;;;25.86;43.95;18948.84;4934514;28;45787;-89
2023/06/30 08:45:36;;;;;;;;;3.00;3.00;;;;;25.84;42.59;22373.97;4927216;28;45916;-88
2023/06/30 08:48:06;;;;;;;;;4.00;4.00;;;;;26.53;43.07;23088.63;4909879;28;48208;-90
2023/06/30 08:50:35;;;;;;;;;3.33;3.33;;;;;26.46;42.84;22399.44;4916732;28;45762;-88
2023/06/30 08:53:02;;;;;;;;;6.33;5.00;;;;;27.22;42.57;21056.94;4916855;28;45599;-89
2023/06/30 08:55:27;;;;;;;;;4.67;4.33;;;;;27.35;42.81;20375.34;4901489;28;45550;-88
2023/06/30 08:57:57;;;;;;;;;3.67;3.67;;;;;27.43;41.93;21064.94;4927924;28;46344;-88
2023/06/30 09:00:23;;;;;;;;;4.00;4.00;;;;;27.91;41.04;24522.66;4924442;28;45421;-89
2023/06/30 09:02:49;;;;;;;;;6.33;3.67;;;;;28.11;40.55;29570.22;4928266;28;45597;-89
2023/06/30 09:05:15;;;;;;;;;3.00;3.00;;;;;28.41;40.51;32488.13;4930459;28;45446;-88
2023/06/30 09:07:53;;;;;;;;;2.75;2.75;;;;;28.20;39.21;37045.56;4930686;28;45582;-88
2023/06/30 09:10:21;;;;;;;;;3.67;3.67;;;;;28.61;37.92;43320.78;4929581;28;45477;-88
2023/06/30 09:12:50;;;;;;;;;4.00;4.00;;;;;28.38;38.06;45722.84;4925167;28;45594;-87
2023/06/30 09:15:18;;;;;;;;;3.00;3.00;;;;;28.49;38.91;45677.16;4925413;28;45555;-86
2023/06/30 09:17:44;;;;;;;;;3.50;3.50;;;;;28.49;38.99;45839.47;4917126;28;46238;-86
2023/06/30 09:20:11;;;;;;;;;4.00;4.00;;;;;28.42;38.96;46832.75;4921961;28;45466;-86
2023/06/30 09:22:40;;;;;;;;;5.00;5.00;;;;;28.40;39.17;46595.34;4919121;28;45439;-90
2023/06/30 09:25:07;;;;;;;;;8.00;5.00;;;;;28.82;38.77;46926.94;4921559;28;45503;-89
2023/06/30 09:27:35;;;;;;;;;4.67;4.67;;;;;29.06;37.96;47032.47;4941683;28;48231;-89
2023/06/30 09:30:01;;;;;;;;;3.67;3.67;;;;;29.22;37.86;47888.16;4913068;28;45443;-87
2023/06/30 09:32:31;;;;;;;;;4.33;4.00;;;;;29.89;36.89;47451.59;4920798;28;45451;-87
2023/06/30 09:35:05;;;;;;;;;5.00;4.00;;;;;30.90;35.71;50715.22;4939983;28;45562;-87
2023/06/30 09:37:41;;;;;;;;;4.00;4.00;;;;;30.99;34.83;54218.41;4942125;28;47544;-90
2023/06/30 09:40:11;;;;;;;;;3.00;3.00;;;;;31.29;33.86;56334.84;4928740;28;45566;-89
2023/06/30 09:42:36;;;;;;;;;4.33;4.33;;;;;31.69;33.07;58308.00;4910466;28;45498;-87
2023/06/30 09:45:02;;;;;;;;;4.00;4.00;;;;;31.66;33.43;59554.13;4941175;28;45445;-86
2023/06/30 09:47:27;;;;;;;;;3.00;3.00;;;;;32.46;32.59;60071.59;4934284;28;45748;-86
2023/06/30 09:49:53;;;;;;;;;3.00;3.00;;;;;33.07;31.46;61407.41;4931270;28;45439;-85
2023/06/30 09:52:24;;;;;;;;;3.00;3.00;;;;;33.21;31.32;62808.84;4912740;28;45491;-88
2023/06/30 09:54:50;;;;;;;;;5.00;3.00;;;;;33.13;30.42;63646.41;4929876;28;45566;-87
2023/06/30 09:57:15;;;;;;;;;3.00;3.00;;;;;32.78;29.49;64971.22;4936389;28;45438;-88
2023/06/30 09:59:40;;;;;;;;;3.00;3.00;;;;;32.33;30.91;65176.56;4919418;28;45906;-88
2023/06/30 10:02:06;;;;;;;;;3.00;3.00;;;;;32.46;30.69;65100.81;4924663;28;45523;-88
2023/06/30 10:04:31;;;;;;;;;3.00;3.00;;;;;32.53;30.58;65220.78;4916272;28;45412;-88
2023/06/30 10:06:57;;;;;;;;;2.67;2.67;;;;;32.60;31.15;65063.91;4917359;28;45630;-88
2023/06/30 10:09:24;;;;;;;;;2.00;2.00;;;;;32.50;29.88;65443.88;4900630;28;45725;-88
2023/06/30 10:11:56;;;;;;;;;2.00;2.00;;;;;32.63;30.69;65416.88;4917394;28;45402;-90
2023/06/30 10:14:28;;;;;;;;;0.00;0.00;;;;;33.08;29.84;65775.53;4917425;28;45529;-90
2023/06/30 10:16:56;;;;;;;;;3.00;3.00;;;;;33.14;28.86;65787.78;4917243;28;45411;-90
2023/06/30 10:19:23;;;;;;;;;2.75;2.75;;;;;32.91;29.96;65926.69;4917157;28;45375;-88
2023/06/30 10:21:49;;;;;;;;;2.00;2.00;;;;;32.77;29.69;66327.50;4931322;28;45445;-88
2023/06/30 10:24:18;;;;;;;;;2.25;2.25;;;;;32.12;29.98;66548.06;4936577;28;45530;-88
2023/06/30 10:26:46;;;;;;;;;2.00;2.00;;;;;31.58;31.13;66556.63;4936295;28;45560;-88
2023/06/30 10:29:11;;;;;;;;;2.00;2.00;;;;;31.24;31.59;66584.00;4935047;28;45411;-87
2023/06/30 10:31:37;;;;;;;;;3.00;3.00;;;;;31.46;31.31;66480.69;4935349;28;45487;-87
2023/06/30 10:34:03;;;;;;;;;3.00;3.00;;;;;31.60;31.45;66438.69;4917676;28;45471;-87
2023/06/30 10:36:28;;;;;;;;;3.00;3.00;;;;;31.75;30.79;66436.63;4928164;28;46089;-88
2023/06/30 10:38:54;;;;;;;;;2.00;2.00;;;;;31.75;30.92;66548.09;4935829;28;45561;-88
2023/06/30 10:41:22;;;;;;;;;4.00;3.00;;;;;31.65;30.42;66646.56;4911433;28;45559;-88
2023/06/30 10:44:06;;;;;;;;;3.25;2.50;;;;;31.59;30.59;66847.41;4913504;28;45471;-85
2023/06/30 10:46:47;;;;;;;;;1.67;1.67;;;;;31.09;31.21;67018.56;4920184;28;45990;-84
2023/06/30 10:49:51;;;;;;;;;2.00;2.00;;;;;30.60;32.12;67096.59;4921650;28;45385;-83
2023/06/30 10:52:30;;;;;;;;;2.00;2.00;;;;;30.42;32.30;67025.25;4927532;28;46846;-86
2023/06/30 10:55:04;;;;;;;;;2.67;2.67;;;;;30.65;32.49;66818.59;4958763;28;45511;-86
2023/06/30 10:57:35;;;;;;;;;4.67;3.33;;;;;30.98;32.40;66782.09;4954680;28;45491;-86
2023/06/30 11:00:10;;;;;;;;;2.67;2.00;;;;;31.36;31.63;66763.72;4964877;28;45904;-85
2023/06/30 11:02:37;;;;;;;;;1.75;1.75;;;;;31.55;30.82;66861.94;4949353;28;45589;-85
2023/06/30 11:05:20;;;;;;;;;2.00;2.00;;;;;31.70;31.15;66614.03;4960192;28;45534;-86
2023/06/30 11:07:52;;;;;;;;;2.00;2.00;;;;;32.03;29.53;66904.22;4958748;28;45413;-85
2023/06/30 11:10:32;;;;;;;;;4.00;2.33;;;;;31.70;30.89;66927.72;4948377;28;45506;-85
2023/06/30 11:12:59;;;;;;;;;4.00;2.67;;;;;31.21;31.30;67033.88;4967392;28;45404;-85
2023/06/30 11:15:28;;;;;;;;;3.33;2.00;;;;;30.99;31.26;67077.50;4963856;28;45576;-85
2023/06/30 11:18:00;;;;;;;;;2.00;2.00;;;;;30.68;31.76;67217.69;4951933;28;46422;-85
2023/06/30 11:20:29;;;;;;;;;2.33;2.33;;;;;30.55;31.72;67176.00;4948927;28;45429;-85
2023/06/30 11:23:00;;;;;;;;;2.67;2.00;;;;;30.85;31.94;67027.09;4968739;28;45535;-85
2023/06/30 11:25:26;;;;;;;;;2.00;2.00;;;;;31.22;31.97;66836.25;4906405;28;45497;-85
2023/06/30 11:27:51;;;;;;;;;4.00;2.00;;;;;31.74;31.34;66894.03;4904653;28;47642;-85
2023/06/30 11:30:18;;;;;;;;;3.00;3.00;;;;;31.94;30.64;66862.25;4909755;28;46272;-85
2023/06/30 11:32:46;;;;;;;;;1.25;1.25;;;;;31.94;30.71;66859.53;4922248;28;45444;-85
2023/06/30 11:35:17;;;;;;;;;1.50;1.50;;;;;32.09;30.91;66676.50;4922435;28;45378;-85
2023/06/30 11:37:50;;;;;;;;;2.25;1.75;;;;;32.58;30.82;66635.47;4904342;28;48359;-85
2023/06/30 11:40:15;;;;;;;;;1.25;1.25;;;;;32.79;29.49;66743.13;4923188;28;45411;-85
2023/06/30 11:42:42;;;;;;;;;1.00;1.00;;;;;32.58;29.22;66931.03;4927327;28;45445;-85
2023/06/30 11:45:07;;;;;;;;;2.00;2.00;;;;;32.16;29.22;67228.16;4928048;28;45587;-85
2023/06/30 11:47:35;;;;;;;;;4.00;2.67;;;;;31.59;30.09;67199.34;4922017;28;45640;-84
2023/06/30 11:50:06;;;;;;;;;1.25;1.25;;;;;31.51;30.30;67133.31;4918635;28;45566;-84
2023/06/30 11:52:32;;;;;;;;;3.00;1.75;;;;;31.82;30.49;67208.78;4926301;28;45494;-85
2023/06/30 11:54:58;;;;;;;;;2.00;2.00;;;;;31.83;29.65;67193.53;4914124;28;45526;-84
2023/06/30 11:57:24;;;;;;;;;1.00;1.00;;;;;32.02;29.47;67228.50;4928381;28;45479;-85
2023/06/30 11:59:49;;;;;;;;;1.00;1.00;;;;;32.07;28.95;67316.84;4929486;28;45537;-85
2023/06/30 12:02:14;;;;;;;;;1.00;1.00;;;;;32.11;29.53;67227.91;4924020;28;45522;-85
2023/06/30 12:04:46;;;;;;;;;2.00;2.00;;;;;31.88;29.31;67380.28;4923603;28;46332;-85
2023/06/30 12:07:14;;;;;;;;;2.00;1.00;;;;;31.79;29.27;67497.84;4919780;28;46999;-84
2023/06/30 12:09:40;;;;;;;;;1.00;1.00;;;;;31.51;29.89;67587.50;4920041;28;45438;-85
2023/06/30 12:12:07;;;;;;;;;1.00;1.00;;;;;31.42;29.55;67623.56;4919968;28;45496;-85
2023/06/30 12:14:40;;;;;;;;;2.25;1.25;;;;;31.46;29.93;67551.09;4917469;28;45418;-85
2023/06/30 12:17:05;;;;;;;;;2.00;2.00;;;;;31.34;29.35;67587.53;4917281;28;47009;-85
2023/06/30 12:19:31;;;;;;;;;2.00;2.00;;;;;31.37;29.13;67652.69;4920784;28;45660;-85
2023/06/30 12:22:01;;;;;;;;;2.50;2.25;;;;;31.05;29.78;67717.88;4922564;28;45677;-85
2023/06/30 12:24:34;;;;;;;;;1.00;1.00;;;;;30.82;29.40;67863.75;4922593;28;45523;-85
2023/06/30 12:27:04;;;;;;;;;1.00;1.00;;;;;30.76;29.00;67952.31;4919547;28;46137;-85
2023/06/30 12:29:33;;;;;;;;;1.25;1.25;;;;;30.68;29.58;67938.72;4917993;28;45407;-84
2023/06/30 12:31:59;;;;;;;;;1.00;1.00;;;;;30.68;29.93;67864.47;4920461;28;45793;-85
2023/06/30 12:34:34;;;;;;;;;1.75;1.75;;;;;30.46;29.56;67918.63;4923495;28;45903;-89
2023/06/30 12:37:00;;;;;;;;;1.00;1.00;;;;;30.54;29.26;68020.69;4936444;28;45510;-88
2023/06/30 12:39:27;;;;;;;;;1.00;1.00;;;;;30.42;29.06;68067.34;4934744;28;45433;-87
2023/06/30 12:41:52;;;;;;;;;2.00;2.00;;;;;30.04;29.48;67988.19;4922062;28;45555;-84
2023/06/30 12:44:17;;;;;;;;;18.33;17.67;;;;;30.38;29.61;68065.41;4922640;28;45474;-85
2023/06/30 12:46:43;;;;;;;;;1.50;1.25;;;;;30.40;29.66;68075.34;4924798;28;49605;-86
2023/06/30 12:49:16;;;;;;;;;2.00;2.00;;;;;30.20;30.03;67932.59;4925265;28;45675;-86
2023/06/30 12:51:43;;;;;;;;;1.00;1.00;;;;;30.43;30.72;67909.69;4923519;28;45617;-85
2023/06/30 12:54:08;;;;;;;;;1.00;1.00;;;;;30.44;30.54;67903.25;4912296;28;45614;-85
2023/06/30 12:56:33;;;;;;;;;2.50;1.00;;;;;30.31;30.37;67896.31;4921366;28;46176;-85
2023/06/30 12:58:59;;;;;;;;;1.25;1.25;;;;;30.31;30.26;67926.31;4922561;28;45450;-89
2023/06/30 13:01:24;;;;;;;;;2.00;2.00;;;;;30.47;30.02;67974.34;4909788;28;45578;-89
2023/06/30 13:03:50;;;;;;;;;1.00;1.00;;;;;30.30;29.54;68004.28;4920783;28;45748;-91
2023/06/30 13:06:15;;;;;;;;;1.00;1.00;;;;;30.16;30.25;67991.25;4914310;28;46876;-89
2023/06/30 13:08:40;;;;;;;;;0.75;0.75;;;;;30.30;30.48;67930.63;4917631;28;45789;-89
2023/06/30 13:11:06;;;;;;;;;1.50;1.00;;;;;30.34;30.23;68006.19;4928875;28;45783;-89
2023/06/30 13:13:31;;;;;;;;;1.00;1.00;;;;;30.45;30.04;68125.41;4921597;28;45640;-90
2023/06/30 13:15:57;;;;;;;;;3.00;1.00;;;;;29.98;30.03;68041.78;4923983;28;48804;-90
2023/06/30 13:18:22;;;;;;;;;1.00;1.00;;;;;30.25;29.60;68102.06;4922832;28;45478;-92
2023/06/30 13:20:47;;;;;;;;;0.25;0.25;;;;;30.12;30.14;68098.41;4911923;28;45494;-92
2023/06/30 13:23:13;;;;;;;;;1.00;1.00;;;;;29.98;30.06;68101.19;4923522;28;45770;-88
2023/06/30 13:25:38;;;;;;;;;1.50;1.00;;;;;30.07;29.62;68048.97;4926904;28;45426;-90
2023/06/30 13:28:04;;;;;;;;;1.00;1.00;;;;;30.07;29.41;68122.59;4927724;28;45761;-90
2023/06/30 13:30:29;;;;;;;;;1.00;1.00;;;;;29.25;29.54;68119.78;4925310;28;45853;-89
2023/06/30 13:32:54;;;;;;;;;1.00;0.25;;;;;29.40;30.24;68142.13;4927999;28;45522;-90
2023/06/30 13:35:23;;;;;;;;;1.25;1.00;;;;;29.52;29.05;68247.59;4925493;28;45739;-90
2023/06/30 13:37:50;;;;;;;;;0.00;0.00;;;;;29.24;29.52;68216.06;4908509;28;45525;-88
2023/06/30 13:40:15;;;;;;;;;1.00;1.00;;;;;28.86;29.74;68221.22;4928116;28;45495;-90
2023/06/30 13:42:41;;;;;;;;;2.00;0.75;;;;;29.28;29.79;68190.19;4929483;28;45647;-89
2023/06/30 13:45:07;;;;;;;;;2.25;1.00;;;;;29.15;29.24;68306.88;4930128;28;46299;-90
2023/06/30 13:47:32;;;;;;;;;2.00;0.75;;;;;29.22;29.52;68293.28;4927747;28;45482;-81
2023/06/30 13:49:57;;;;;;;;;2.00;1.00;;;;;29.39;29.96;68325.63;4928944;28;45400;-80
2023/06/30 13:52:23;;;;;;;;;1.00;1.00;;;;;29.43;29.70;68382.06;4935127;28;45418;-81
2023/06/30 13:54:48;;;;;;;;;0.33;0.33;;;;;29.38;29.78;68414.91;4903695;28;52469;-81
2023/06/30 13:57:13;;;;;;;;;2.00;1.00;;;;;29.30;30.07;68405.56;4935389;28;45407;-81
2023/06/30 13:59:39;;;;;;;;;0.50;0.50;;;;;29.28;29.81;68419.56;4933899;28;45468;-81
2023/06/30 14:02:05;;;;;;;;;1.00;1.00;;;;;29.23;29.92;68403.38;4931204;28;45370;-81
2023/06/30 14:04:30;;;;;;;;;1.00;1.00;;;;;29.26;29.97;68379.06;4929118;28;45536;-81
2023/06/30 14:06:55;;;;;;;;;1.50;1.50;;;;;29.27;29.94;68350.31;4929602;28;45784;-81
2023/06/30 14:09:21;;;;;;;;;1.00;1.00;;;;;29.22;29.92;68355.94;4933273;28;45797;-81
2023/06/30 14:11:46;;;;;;;;;0.75;0.75;;;;;29.28;29.88;68444.06;4921141;28;45638;-82
2023/06/30 14:14:12;;;;;;;;;1.00;1.00;;;;;29.23;29.65;68479.66;4935381;28;46026;-83
2023/06/30 14:16:38;;;;;;;;;1.50;0.50;;;;;29.10;30.10;68401.78;4935322;28;45371;-83
2023/06/30 14:19:03;;;;;;;;;1.00;1.00;;;;;29.11;30.57;68432.31;4925128;28;45839;-82
2023/06/30 14:21:29;;;;;;;;;1.00;1.00;;;;;29.01;30.05;68370.03;4928826;28;45881;-83
2023/06/30 14:23:55;;;;;;;;;1.25;1.25;;;;;29.10;29.50;68458.38;4932319;28;47442;-83
2023/06/30 14:26:22;;;;;;;;;0.25;0.25;;;;;28.87;29.68;68429.25;4923514;28;45462;-84
2023/06/30 14:28:48;;;;;;;;;0.00;0.00;;;;;28.85;29.36;68498.28;4920162;28;45609;-84
2023/06/30 14:31:13;;;;;;;;;1.00;1.00;;;;;28.84;29.64;68497.09;4919338;28;45574;-84
2023/06/30 14:33:39;;;;;;;;;0.33;0.33;;;;;28.83;29.25;68472.00;4916165;28;47401;-85
2023/06/30 14:36:04;;;;;;;;;1.00;1.00;;;;;28.71;29.73;68479.13;4918760;28;45467;-85
2023/06/30 14:38:30;;;;;;;;;1.00;1.00;;;;;28.86;30.03;68460.75;4899343;28;45579;-85
2023/06/30 14:40:56;;;;;;;;;3.00;1.33;;;;;28.80;29.53;68492.41;4903395;28;45429;-84
2023/06/30 14:43:23;;;;;;;;;0.67;0.33;;;;;28.55;29.95;68504.47;4915558;28;45555;-84
2023/06/30 14:45:49;;;;;;;;;1.00;1.00;;;;;28.65;29.91;68496.56;4916445;28;45642;-85
2023/06/30 14:48:15;;;;;;;;;0.67;0.67;;;;;28.49;29.73;68511.59;4916454;28;45352;-84
2023/06/30 14:50:40;;;;;;;;;0.67;0.67;;;;;28.43;29.94;68496.41;4920486;28;45556;-84
2023/06/30 14:53:06;;;;;;;;;2.00;0.33;;;;;28.49;29.95;68500.16;4934112;28;47203;-84
2023/06/30 14:55:31;;;;;;;;;2.00;0.00;;;;;28.47;29.97;68492.97;4934515;28;45534;-85
2023/06/30 14:57:57;;;;;;;;;0.33;0.33;;;;;28.59;29.89;68488.00;4934794;28;45467;-84
2023/06/30 15:00:22;;;;;;;;;0.00;0.00;;;;;28.71;29.12;68525.97;4935534;28;45408;-84
2023/06/30 15:02:48;;;;;;;;;0.00;0.00;;;;;28.72;29.40;68540.16;5007474;28;46188;-85
2023/06/30 15:05:13;;;;;;;;;0.00;0.00;;;;;28.50;29.13;68531.25;4964791;28;53338;-83
2023/06/30 15:07:38;;;;;;;;;1.00;1.00;;;;;28.58;29.17;68518.88;4919537;28;45728;-83
2023/06/30 15:10:04;;;;;;;;;0.50;0.50;;;;;28.65;30.00;68504.72;4916611;28;45431;-83
2023/06/30 15:12:30;;;;;;;;;0.75;0.75;;;;;28.50;29.42;68520.38;4916082;28;46753;-84
2023/06/30 15:14:55;;;;;;;;;1.00;1.00;;;;;28.44;29.20;68584.59;4910831;28;45376;-83
2023/06/30 15:17:20;;;;;;;;;0.50;0.50;;;;;28.51;29.12;68633.06;4906121;28;45490;-83
2023/06/30 15:19:46;;;;;;;;;0.00;0.00;;;;;28.45;29.06;68569.47;4929271;28;45554;-83
2023/06/30 15:22:11;;;;;;;;;0.00;0.00;;;;;28.12;27.82;68661.78;4922446;28;47037;-81
2023/06/30 15:24:36;;;;;;;;;1.50;0.75;;;;;28.27;28.81;68649.53;4923714;28;46187;-81
2023/06/30 15:27:04;;;;;;;;;0.00;0.00;;;;;28.24;29.01;68601.88;4927238;28;45482;-81
2023/06/30 15:29:29;;;;;;;;;2.33;1.00;;;;;28.10;28.43;68684.50;4921041;28;45479;-81
2023/06/30 15:31:55;;;;;;;;;0.67;0.67;;;;;28.07;28.70;68677.66;4916049;28;45436;-81
2023/06/30 15:34:20;;;;;;;;;0.00;0.00;;;;;27.98;28.39;68735.63;4930414;28;45462;-80
2023/06/30 15:36:46;;;;;;;;;0.33;0.33;;;;;27.95;28.85;68694.59;4930994;28;45495;-81
2023/06/30 15:39:11;;;;;;;;;0.00;0.00;;;;;27.89;28.19;68709.28;4915912;28;45484;-81
2023/06/30 15:41:37;;;;;;;;;1.67;1.00;;;;;27.78;29.31;68618.09;4983424;28;46440;-81
2023/06/30 15:44:02;;;;;;;;;1.00;1.00;;;;;27.92;29.59;68663.91;4934983;28;45494;-81
2023/06/30 15:46:28;;;;;;;;;1.00;0.00;;;;;27.96;29.52;68684.91;4931624;28;45419;-81
2023/06/30 15:48:53;;;;;;;;;0.00;0.00;;;;;27.84;29.63;68630.03;4916877;28;45451;-81
2023/06/30 15:51:19;;;;;;;;;0.00;0.00;;;;;27.82;29.88;68665.69;4906239;28;47309;-81
2023/06/30 15:53:45;;;;;;;;;2.00;2.00;;;;;27.62;30.57;68661.75;4928092;28;46481;-81
2023/06/30 15:56:11;;;;;;;;;0.33;0.33;;;;;27.60;30.19;68673.00;4916141;28;45482;-81
2023/06/30 15:58:36;;;;;;;;;2.00;1.00;;;;;27.78;30.53;68601.78;4898529;28;45815;-81
2023/06/30 16:01:01;;;;;;;;;1.00;1.00;;;;;27.80;30.30;68647.03;4921842;28;45858;-81
2023/06/30 16:03:26;;;;;;;;;1.00;1.00;;;;;27.72;30.09;68678.97;4955324;28;45591;-81
2023/06/30 16:05:52;;;;;;;;;1.75;0.00;;;;;27.65;30.50;68621.84;4904902;28;45470;-81
2023/06/30 16:08:17;;;;;;;;;2.33;0.00;;;;;27.41;30.63;68694.66;4900817;28;45467;-80
2023/06/30 16:10:42;;;;;;;;;0.00;0.00;;;;;27.55;31.02;68643.25;4908018;28;47391;-80
2023/06/30 16:13:08;;;;;;;;;1.00;1.00;;;;;27.49;30.28;68665.50;4902659;28;45655;-80
2023/06/30 16:15:33;;;;;;;;;0.00;0.00;;;;;27.41;30.77;68634.91;4909136;28;45509;-79
2023/06/30 16:17:58;;;;;;;;;1.00;1.00;;;;;27.40;31.03;68641.91;4911423;28;45426;-81
2023/06/30 16:20:25;;;;;;;;;1.67;1.00;;;;;27.36;31.04;68667.06;4911359;28;46787;-81
2023/06/30 16:22:50;;;;;;;;;2.33;2.00;;;;;27.38;30.80;68655.25;4905385;28;45501;-82
2023/06/30 16:25:15;;;;;;;;;1.33;1.33;;;;;27.41;31.07;68678.38;4906234;28;45502;-82
2023/06/30 16:27:41;;;;;;;;;4.00;3.33;;;;;27.38;31.06;68623.25;4898069;28;45790;-81
2023/06/30 16:30:26;;;;;;;;;1.67;1.67;;;;;27.39;31.17;68612.97;4896984;28;46958;-82
2023/06/30 16:32:52;;;;;;;;;2.33;2.33;;;;;27.42;31.09;68638.81;4910244;28;45537;-80